createdAt,value
2023-03-19T00:01:56.010Z,11.14
2023-03-19T00:04:24.523Z,11.11
2023-03-19T00:06:51.382Z,11.09
2023-03-19T00:09:19.102Z,11.06
2023-03-19T00:11:46.074Z,11.08
2023-03-19T00:14:13.250Z,11.08
2023-03-19T00:16:40.265Z,11.05
2023-03-19T00:19:07.400Z,11.06
2023-03-19T00:21:34.324Z,10.98
2023-03-19T00:24:02.759Z,10.95
2023-03-19T00:26:30.184Z,10.94
2023-03-19T00:29:00.589Z,10.99
2023-03-19T00:31:28.268Z,10.96
2023-03-19T00:33:58.077Z,10.98
2023-03-19T00:36:25.961Z,10.96
2023-03-19T00:38:53.059Z,10.95
2023-03-19T00:41:20.754Z,10.94
2023-03-19T00:43:47.816Z,10.91
2023-03-19T00:46:14.688Z,10.91
2023-03-19T00:48:41.792Z,10.86
2023-03-19T00:51:09.586Z,10.86
2023-03-19T00:53:43.053Z,10.86
2023-03-19T00:56:11.475Z,10.82
2023-03-19T00:58:38.915Z,10.69
2023-03-19T01:01:06.100Z,10.75
2023-03-19T01:03:33.189Z,10.67
2023-03-19T01:05:59.957Z,10.67
2023-03-19T01:08:27.400Z,10.66
2023-03-19T01:10:54.223Z,10.65
2023-03-19T01:13:21.327Z,10.63
2023-03-19T01:15:51.937Z,10.63
2023-03-19T01:18:19.045Z,10.57
2023-03-19T01:20:45.777Z,10.52
2023-03-19T01:23:12.814Z,10.56
2023-03-19T01:25:39.625Z,10.50
2023-03-19T01:28:07.655Z,10.45
2023-03-19T01:30:34.826Z,10.45
2023-03-19T01:33:02.150Z,10.43
2023-03-19T01:35:28.990Z,10.43
2023-03-19T01:37:56.182Z,10.38
2023-03-19T01:40:23.601Z,10.39
2023-03-19T01:42:57.444Z,10.40
2023-03-19T01:45:35.188Z,10.35
2023-03-19T01:48:02.425Z,10.37
2023-03-19T01:50:41.920Z,10.29
2023-03-19T01:53:12.553Z,10.27
2023-03-19T01:55:39.852Z,10.26
2023-03-19T01:58:06.943Z,10.21
2023-03-19T02:00:35.214Z,10.14
2023-03-19T02:03:02.520Z,10.16
2023-03-19T02:05:29.394Z,10.13
2023-03-19T02:07:58.483Z,10.13
2023-03-19T02:10:25.255Z,10.15
2023-03-19T02:12:52.323Z,10.16
2023-03-19T02:15:19.194Z,10.12
2023-03-19T02:17:46.369Z,10.15
2023-03-19T02:20:46.591Z,10.14
2023-03-19T02:23:26.377Z,10.11
2023-03-19T02:26:12.750Z,10.03
2023-03-19T02:28:41.524Z,10.00
2023-03-19T02:31:08.503Z,9.98
2023-03-19T02:33:35.743Z,9.94
2023-03-19T02:36:03.853Z,9.97
2023-03-19T02:38:32.090Z,9.96
2023-03-19T02:41:09.397Z,9.96
2023-03-19T02:43:38.102Z,9.99
2023-03-19T02:46:07.469Z,9.93
2023-03-19T02:48:35.027Z,9.86
2023-03-19T02:51:01.749Z,9.86
2023-03-19T02:53:28.792Z,9.85
2023-03-19T02:55:55.668Z,9.88
2023-03-19T02:58:22.685Z,9.84
2023-03-19T03:00:49.457Z,9.78
2023-03-19T03:03:17.148Z,9.76
2023-03-19T03:05:43.948Z,9.75
2023-03-19T03:08:11.026Z,9.70
2023-03-19T03:10:37.846Z,9.71
2023-03-19T03:13:05.635Z,9.71
2023-03-19T03:15:32.371Z,9.68
2023-03-19T03:17:59.438Z,9.70
2023-03-19T03:20:26.186Z,9.60
2023-03-19T03:22:53.718Z,9.62
2023-03-19T03:25:21.211Z,9.62
2023-03-19T03:27:48.326Z,9.62
2023-03-19T03:30:16.230Z,9.60
2023-03-19T03:32:43.339Z,9.56
2023-03-19T03:35:10.295Z,9.52
2023-03-19T03:37:38.093Z,9.55
2023-03-19T03:40:08.377Z,9.53
2023-03-19T03:42:36.810Z,9.46
2023-03-19T03:45:04.092Z,9.47
2023-03-19T03:47:31.469Z,9.47
2023-03-19T03:49:58.214Z,9.48
2023-03-19T03:52:25.361Z,9.42
2023-03-19T03:54:52.089Z,9.44
2023-03-19T03:57:19.312Z,9.40
2023-03-19T03:59:46.026Z,9.38
2023-03-19T04:02:13.106Z,9.35
2023-03-19T04:04:39.962Z,9.38
2023-03-19T04:07:07.381Z,9.36
2023-03-19T04:09:34.184Z,9.36
2023-03-19T04:12:01.270Z,9.31
2023-03-19T04:14:28.170Z,9.33
2023-03-19T04:16:55.205Z,9.29
2023-03-19T04:19:22.244Z,9.25
2023-03-19T04:21:49.280Z,9.20
2023-03-19T04:24:16.109Z,9.17
2023-03-19T04:26:43.160Z,9.16
2023-03-19T04:29:09.923Z,9.17
2023-03-19T04:31:37.030Z,9.18
2023-03-19T04:34:03.822Z,9.17
2023-03-19T04:36:31.008Z,9.13
2023-03-19T04:38:57.793Z,9.09
2023-03-19T04:41:26.062Z,9.08
2023-03-19T04:43:52.802Z,9.09
2023-03-19T04:46:19.878Z,9.08
2023-03-19T04:48:46.657Z,9.12
2023-03-19T04:51:13.756Z,9.08
2023-03-19T04:53:40.658Z,9.07
2023-03-19T04:56:08.083Z,9.07
2023-03-19T04:58:35.280Z,9.05
2023-03-19T05:01:02.442Z,9.04
2023-03-19T05:03:29.315Z,9.06
2023-03-19T05:05:56.395Z,9.06
2023-03-19T05:08:23.204Z,9.06
2023-03-19T05:10:50.543Z,8.96
2023-03-19T05:13:18.098Z,9.03
2023-03-19T05:15:46.427Z,8.98
2023-03-19T05:18:13.333Z,9.02
2023-03-19T05:20:40.590Z,9.02
2023-03-19T05:23:07.323Z,9.00
2023-03-19T05:25:35.322Z,9.02
2023-03-19T05:28:03.121Z,9.03
2023-03-19T05:30:30.439Z,9.03
2023-03-19T05:32:58.433Z,9.05
2023-03-19T05:35:26.842Z,9.03
2023-03-19T05:37:53.998Z,9.02
2023-03-19T05:40:21.286Z,9.05
2023-03-19T05:42:48.075Z,9.01
2023-03-19T05:45:15.577Z,8.98
2023-03-19T05:47:42.311Z,9.01
2023-03-19T05:50:10.001Z,8.97
2023-03-19T05:52:36.709Z,8.98
2023-03-19T05:55:04.696Z,8.99
2023-03-19T05:57:31.663Z,9.08
2023-03-19T05:59:58.741Z,9.12
2023-03-19T06:02:25.548Z,9.09
2023-03-19T06:04:52.674Z,9.15
2023-03-19T06:07:19.421Z,9.15
2023-03-19T06:09:46.747Z,9.18
2023-03-19T06:12:13.494Z,9.19
2023-03-19T06:14:40.787Z,9.23
2023-03-19T06:17:07.632Z,9.26
2023-03-19T06:19:34.852Z,9.31
2023-03-19T06:22:01.711Z,9.35
2023-03-19T06:24:30.491Z,9.39
2023-03-19T06:26:57.260Z,9.44
2023-03-19T06:29:24.353Z,9.49
2023-03-19T06:31:51.332Z,9.58
2023-03-19T06:34:18.744Z,9.65
2023-03-19T06:36:45.547Z,9.72
2023-03-19T06:39:12.870Z,9.78
2023-03-19T06:41:39.746Z,9.84
2023-03-19T06:44:07.430Z,9.92
2023-03-19T06:46:34.162Z,9.99
2023-03-19T06:49:01.232Z,10.03
2023-03-19T06:51:28.083Z,10.09
2023-03-19T06:53:55.323Z,10.12
2023-03-19T06:56:22.198Z,10.17
2023-03-19T06:58:49.248Z,10.23
2023-03-19T07:01:16.571Z,10.27
2023-03-19T07:03:43.701Z,10.35
2023-03-19T07:06:10.549Z,10.42
2023-03-19T07:08:37.597Z,10.46
2023-03-19T07:11:07.458Z,10.54
2023-03-19T07:13:34.692Z,10.61
2023-03-19T07:16:01.723Z,10.69
2023-03-19T07:18:30.321Z,10.73
2023-03-19T07:20:57.107Z,10.83
2023-03-19T07:23:24.245Z,10.91
2023-03-19T07:25:51.145Z,11.02
2023-03-19T07:28:18.170Z,11.04
2023-03-19T07:30:44.974Z,11.13
2023-03-19T07:33:12.849Z,11.21
2023-03-19T07:35:39.763Z,11.25
2023-03-19T07:38:06.855Z,11.33
2023-03-19T07:40:33.762Z,11.42
2023-03-19T07:43:01.115Z,11.47
2023-03-19T07:45:27.963Z,11.55
2023-03-19T07:47:55.244Z,11.61
2023-03-19T07:50:22.029Z,11.67
2023-03-19T07:52:49.532Z,11.76
2023-03-19T07:55:16.354Z,11.80
2023-03-19T07:57:43.508Z,11.92
2023-03-19T08:00:10.978Z,11.97
2023-03-19T08:02:38.113Z,12.01
2023-03-19T08:05:05.248Z,12.08
2023-03-19T08:07:32.502Z,12.16
2023-03-19T08:09:59.289Z,12.27
2023-03-19T08:12:26.370Z,12.35
2023-03-19T08:14:53.213Z,12.42
2023-03-19T08:17:20.291Z,12.50
2023-03-19T08:19:47.118Z,12.59
2023-03-19T08:22:14.233Z,12.66
2023-03-19T08:24:41.027Z,12.73
2023-03-19T08:27:08.243Z,12.83
2023-03-19T08:29:35.223Z,12.92
2023-03-19T08:32:02.411Z,13.00
2023-03-19T08:34:29.201Z,13.10
2023-03-19T08:36:56.384Z,13.15
2023-03-19T08:39:24.019Z,13.24
2023-03-19T08:41:51.345Z,13.32
2023-03-19T08:44:18.105Z,13.41
2023-03-19T08:46:45.667Z,13.49
2023-03-19T08:49:12.456Z,13.54
2023-03-19T08:51:40.542Z,13.60
2023-03-19T08:54:07.372Z,13.70
2023-03-19T08:56:34.429Z,13.78
2023-03-19T08:59:01.196Z,13.81
2023-03-19T09:01:28.307Z,13.90
2023-03-19T09:03:55.154Z,13.96
2023-03-19T09:06:22.291Z,14.05
2023-03-19T09:08:49.080Z,14.14
2023-03-19T09:11:17.432Z,14.18
2023-03-19T09:13:44.273Z,14.25
2023-03-19T09:16:11.477Z,14.31
2023-03-19T09:18:38.453Z,14.39
2023-03-19T09:21:05.978Z,14.47
2023-03-19T09:23:32.857Z,14.54
2023-03-19T09:25:59.920Z,14.61
2023-03-19T09:28:27.195Z,14.65
2023-03-19T09:30:54.421Z,14.70
2023-03-19T09:33:21.624Z,14.76
2023-03-19T09:35:52.782Z,14.89
2023-03-19T09:38:21.033Z,14.95
2023-03-19T09:40:49.520Z,14.99
2023-03-19T09:43:22.439Z,15.05
2023-03-19T09:45:50.236Z,15.11
2023-03-19T09:48:20.082Z,15.16
2023-03-19T09:50:48.012Z,15.19
2023-03-19T09:53:27.155Z,15.29
2023-03-19T09:55:54.441Z,15.34
2023-03-19T09:58:23.568Z,15.42
2023-03-19T10:00:51.302Z,15.51
2023-03-19T10:03:30.478Z,15.59
2023-03-19T10:06:16.486Z,15.68
2023-03-19T10:08:53.397Z,15.75
2023-03-19T10:11:39.167Z,15.81
2023-03-19T10:14:36.256Z,15.93
2023-03-19T10:17:04.532Z,16.00
2023-03-19T10:19:45.700Z,16.07
2023-03-19T10:22:16.806Z,16.12
2023-03-19T10:24:45.210Z,16.23
2023-03-19T10:27:17.455Z,16.30
2023-03-19T10:29:44.236Z,16.32
2023-03-19T10:32:19.035Z,16.41
2023-03-19T10:34:50.480Z,16.51
2023-03-19T10:37:22.191Z,16.58
2023-03-19T10:39:50.705Z,16.59
2023-03-19T10:42:17.863Z,16.61
2023-03-19T10:45:05.526Z,16.72
2023-03-19T10:47:37.892Z,16.78
2023-03-19T10:50:05.064Z,16.83
2023-03-19T10:52:35.802Z,16.85
2023-03-19T10:55:12.797Z,17.03
2023-03-19T10:57:41.818Z,17.01
2023-03-19T11:00:19.385Z,17.05
2023-03-19T11:02:52.642Z,17.11
2023-03-19T11:05:23.059Z,17.18
2023-03-19T11:07:51.387Z,17.15
2023-03-19T11:10:19.055Z,17.30
2023-03-19T11:13:00.693Z,17.29
2023-03-19T11:15:40.121Z,17.40
2023-03-19T11:18:08.364Z,17.49
2023-03-19T11:20:37.142Z,17.50
2023-03-19T11:23:12.642Z,17.50
2023-03-19T11:25:42.031Z,17.55
2023-03-19T11:28:14.142Z,17.71
2023-03-19T11:30:49.043Z,17.70
2023-03-19T11:33:32.729Z,17.87
2023-03-19T11:36:08.610Z,17.82
2023-03-19T11:39:15.641Z,18.04
2023-03-19T11:41:54.330Z,18.11
2023-03-19T11:44:43.650Z,18.19
2023-03-19T11:47:37.780Z,18.17
2023-03-19T11:50:27.278Z,18.23
2023-03-19T11:53:18.130Z,18.40
2023-03-19T11:56:03.571Z,18.42
2023-03-19T11:58:48.613Z,18.44
2023-03-19T12:01:29.552Z,18.52
2023-03-19T12:04:34.161Z,18.53
2023-03-19T12:07:13.212Z,18.48
2023-03-19T12:10:00.954Z,18.44
2023-03-19T12:12:39.979Z,18.50
2023-03-19T12:15:18.879Z,18.58
2023-03-19T12:18:28.140Z,18.58
2023-03-19T12:21:13.724Z,18.72
2023-03-19T12:24:29.042Z,18.86
2023-03-19T12:27:21.092Z,18.89
2023-03-19T12:30:08.331Z,18.93
2023-03-19T12:32:46.395Z,18.87
2023-03-19T12:35:16.687Z,18.96
2023-03-19T12:37:59.790Z,19.05
2023-03-19T12:40:39.887Z,19.10
2023-03-19T12:43:11.012Z,19.06
2023-03-19T12:45:48.689Z,19.12
2023-03-19T12:48:19.358Z,19.21
2023-03-19T12:50:50.006Z,19.09
2023-03-19T12:53:28.837Z,19.16
2023-03-19T12:55:58.670Z,19.17
2023-03-19T12:58:32.497Z,19.19
2023-03-19T13:01:02.203Z,19.24
2023-03-19T13:03:34.252Z,19.21
2023-03-19T13:06:16.085Z,19.25
2023-03-19T13:08:49.888Z,19.28
2023-03-19T13:11:21.646Z,19.30
2023-03-19T13:13:53.356Z,19.30
2023-03-19T13:16:58.724Z,19.36
2023-03-19T13:19:30.256Z,19.40
2023-03-19T13:21:59.724Z,19.42
2023-03-19T13:24:30.318Z,19.40
2023-03-19T13:26:58.662Z,19.52
2023-03-19T13:29:29.572Z,19.44
2023-03-19T13:32:06.106Z,19.49
2023-03-19T13:34:34.590Z,19.43
2023-03-19T13:37:07.132Z,19.44
2023-03-19T13:39:34.371Z,19.44
2023-03-19T13:42:24.260Z,19.42
2023-03-19T13:44:51.718Z,19.46
2023-03-19T13:47:36.425Z,19.51
2023-03-19T13:50:08.590Z,19.49
2023-03-19T13:52:46.285Z,19.51
2023-03-19T13:55:25.796Z,19.53
2023-03-19T13:58:12.312Z,19.53
2023-03-19T14:00:42.956Z,19.53
2023-03-19T14:03:20.910Z,19.51
2023-03-19T14:05:48.774Z,19.48
2023-03-19T14:08:20.288Z,19.50
2023-03-19T14:10:51.352Z,19.50
2023-03-19T14:13:31.655Z,19.49
2023-03-19T14:16:10.140Z,19.52
2023-03-19T14:18:40.366Z,19.50
2023-03-19T14:21:12.877Z,19.50
2023-03-19T14:23:44.124Z,19.52
2023-03-19T14:26:18.114Z,19.49
2023-03-19T14:28:45.221Z,19.50
2023-03-19T14:31:37.120Z,19.49
2023-03-19T14:34:25.806Z,19.50
2023-03-19T14:37:36.243Z,19.50
2023-03-19T14:40:16.147Z,19.50
2023-03-19T14:43:03.429Z,19.50
2023-03-19T14:45:36.646Z,19.49
2023-03-19T14:48:07.260Z,19.45
2023-03-19T14:50:43.405Z,19.43
2023-03-19T14:53:44.939Z,19.44
2023-03-19T14:56:24.135Z,19.45
2023-03-19T14:58:53.334Z,19.42
2023-03-19T15:01:21.027Z,19.41
2023-03-19T15:03:53.280Z,19.43
2023-03-19T15:06:20.377Z,19.40
2023-03-19T15:08:49.531Z,19.38
2023-03-19T15:11:27.717Z,19.38
2023-03-19T15:14:12.009Z,19.38
2023-03-19T15:17:23.770Z,19.37
2023-03-19T15:19:50.887Z,19.38
2023-03-19T15:22:31.832Z,19.36
2023-03-19T15:25:14.907Z,19.34
2023-03-19T15:27:42.321Z,19.30
2023-03-19T15:30:52.421Z,19.26
2023-03-19T15:33:39.570Z,19.24
2023-03-19T15:36:34.421Z,19.20
2023-03-19T15:39:06.837Z,19.21
2023-03-19T15:41:35.951Z,19.19
2023-03-19T15:44:05.242Z,19.17
2023-03-19T15:46:33.412Z,19.18
2023-03-19T15:49:28.804Z,19.16
2023-03-19T15:51:59.081Z,19.14
2023-03-19T15:54:26.404Z,19.12
2023-03-19T15:56:53.183Z,19.08
2023-03-19T15:59:21.556Z,19.06
2023-03-19T16:01:48.750Z,19.05
2023-03-19T16:04:20.813Z,19.01
2023-03-19T16:06:49.161Z,19.01
2023-03-19T16:09:19.196Z,19.00
2023-03-19T16:11:46.341Z,18.97
2023-03-19T16:14:23.165Z,18.94
2023-03-19T16:16:50.095Z,18.93
2023-03-19T16:19:33.389Z,18.90
2023-03-19T16:22:00.470Z,18.88
2023-03-19T16:24:34.353Z,18.85
2023-03-19T16:27:06.577Z,18.85
2023-03-19T16:29:39.002Z,18.79
2023-03-19T16:32:11.905Z,18.76
2023-03-19T16:34:49.225Z,18.75
2023-03-19T16:37:28.653Z,18.72
2023-03-19T16:39:57.048Z,18.70
2023-03-19T16:42:32.969Z,18.67
2023-03-19T16:45:15.710Z,18.64
2023-03-19T16:47:43.150Z,18.62
2023-03-19T16:50:10.962Z,18.60
2023-03-19T16:52:38.314Z,18.59
2023-03-19T16:55:05.880Z,18.57
2023-03-19T16:57:32.647Z,18.54
2023-03-19T16:59:59.725Z,18.50
2023-03-19T17:02:26.497Z,18.47
2023-03-19T17:04:53.729Z,18.44
2023-03-19T17:07:20.666Z,18.38
2023-03-19T17:09:47.738Z,18.36
2023-03-19T17:12:15.476Z,18.32
2023-03-19T17:14:42.779Z,18.29
2023-03-19T17:17:19.316Z,18.26
2023-03-19T17:19:46.852Z,18.22
2023-03-19T17:22:14.466Z,18.16
2023-03-19T17:24:43.312Z,18.13
2023-03-19T17:27:10.586Z,18.08
2023-03-19T17:29:37.699Z,18.02
2023-03-19T17:32:04.656Z,17.99
2023-03-19T17:34:32.111Z,17.94
2023-03-19T17:37:00.395Z,17.91
2023-03-19T17:39:30.007Z,17.89
2023-03-19T17:41:56.866Z,17.83
2023-03-19T17:44:24.170Z,17.77
2023-03-19T17:46:52.262Z,17.73
2023-03-19T17:49:23.405Z,17.69
2023-03-19T17:51:50.888Z,17.62
2023-03-19T17:54:18.029Z,17.59
2023-03-19T17:56:44.849Z,17.57
2023-03-19T17:59:12.033Z,17.52
2023-03-19T18:01:40.234Z,17.46
2023-03-19T18:04:07.527Z,17.42
2023-03-19T18:06:35.574Z,17.36
2023-03-19T18:09:03.159Z,17.33
2023-03-19T18:11:30.002Z,17.30
2023-03-19T18:13:57.033Z,17.23
2023-03-19T18:16:30.720Z,17.19
2023-03-19T18:19:02.057Z,17.14
2023-03-19T18:21:29.194Z,17.09
2023-03-19T18:23:57.389Z,17.04
2023-03-19T18:26:24.881Z,17.01
2023-03-19T18:28:52.127Z,16.93
2023-03-19T18:31:21.413Z,16.90
2023-03-19T18:33:50.405Z,16.84
2023-03-19T18:36:19.548Z,16.76
2023-03-19T18:38:46.692Z,16.75
2023-03-19T18:41:19.924Z,16.70
2023-03-19T18:43:47.206Z,16.65
2023-03-19T18:46:17.033Z,16.64
2023-03-19T18:48:44.227Z,16.59
2023-03-19T18:51:11.482Z,16.55
2023-03-19T18:53:39.981Z,16.51
2023-03-19T18:56:18.441Z,16.47
2023-03-19T18:58:45.696Z,16.44
2023-03-19T19:01:15.380Z,16.41
2023-03-19T19:03:43.317Z,16.35
2023-03-19T19:06:10.218Z,16.33
2023-03-19T19:08:37.472Z,16.27
2023-03-19T19:11:05.600Z,16.20
2023-03-19T19:13:46.203Z,16.12
2023-03-19T19:16:21.918Z,16.13
2023-03-19T19:18:49.376Z,16.10
2023-03-19T19:21:16.396Z,16.05
2023-03-19T19:23:43.715Z,16.01
2023-03-19T19:26:31.145Z,16.02
2023-03-19T19:28:59.626Z,15.97
2023-03-19T19:31:28.269Z,15.87
2023-03-19T19:33:55.733Z,15.77
2023-03-19T19:36:23.527Z,15.81
2023-03-19T19:38:52.115Z,15.76
2023-03-19T19:41:21.952Z,15.79
2023-03-19T19:43:49.159Z,15.70
2023-03-19T19:46:22.607Z,15.72
2023-03-19T19:48:50.030Z,15.67
2023-03-19T19:51:24.865Z,15.61
2023-03-19T19:53:52.392Z,15.58
2023-03-19T19:56:23.732Z,15.55
2023-03-19T19:58:52.579Z,15.48
2023-03-19T20:01:24.330Z,15.52
2023-03-19T20:03:52.760Z,15.53
2023-03-19T20:06:20.523Z,15.48
2023-03-19T20:08:49.473Z,15.47
2023-03-19T20:11:18.336Z,15.47
2023-03-19T20:13:52.085Z,15.41
2023-03-19T20:16:20.234Z,15.41
2023-03-19T20:18:48.519Z,15.38
2023-03-19T20:21:16.352Z,15.34
2023-03-19T20:23:44.909Z,15.30
2023-03-19T20:26:20.992Z,15.29
2023-03-19T20:28:49.130Z,15.25
2023-03-19T20:31:19.931Z,15.23
2023-03-19T20:33:47.957Z,15.19
2023-03-19T20:36:15.963Z,15.14
2023-03-19T20:38:44.083Z,15.09
2023-03-19T20:41:29.643Z,15.09
2023-03-19T20:43:57.849Z,15.06
2023-03-19T20:46:25.754Z,15.00
2023-03-19T20:48:53.699Z,14.97
2023-03-19T20:51:23.131Z,14.94
2023-03-19T20:53:51.884Z,14.90
2023-03-19T20:56:24.705Z,14.88
2023-03-19T20:58:52.711Z,14.86
2023-03-19T21:01:20.286Z,14.82
2023-03-19T21:03:48.081Z,14.80
2023-03-19T21:06:22.994Z,14.78
2023-03-19T21:08:54.597Z,14.75
2023-03-19T21:11:22.658Z,14.73
2023-03-19T21:13:52.630Z,14.73
2023-03-19T21:16:24.502Z,14.71
2023-03-19T21:18:51.955Z,14.69
2023-03-19T21:21:19.374Z,14.69
2023-03-19T21:24:07.202Z,14.65
2023-03-19T21:26:37.894Z,14.62
2023-03-19T21:29:12.037Z,14.61
2023-03-19T21:31:38.916Z,14.61
2023-03-19T21:34:06.340Z,14.59
2023-03-19T21:36:33.424Z,14.54
2023-03-19T21:39:01.366Z,14.55
2023-03-19T21:41:31.827Z,14.52
2023-03-19T21:44:04.084Z,14.52
2023-03-19T21:46:31.169Z,14.50
2023-03-19T21:48:58.595Z,14.45
2023-03-19T21:51:26.206Z,14.41
2023-03-19T21:53:53.307Z,14.42
2023-03-19T21:56:33.361Z,14.40
2023-03-19T21:59:02.276Z,14.36
2023-03-19T22:01:29.153Z,14.34
2023-03-19T22:03:57.020Z,14.34
2023-03-19T22:06:24.453Z,14.27
2023-03-19T22:08:53.920Z,14.27
2023-03-19T22:11:28.738Z,14.26
2023-03-19T22:14:07.543Z,14.23
2023-03-19T22:16:34.665Z,14.23
2023-03-19T22:19:01.899Z,14.19
2023-03-19T22:21:30.651Z,14.17
2023-03-19T22:23:57.833Z,14.16
2023-03-19T22:26:34.998Z,14.15
2023-03-19T22:29:04.644Z,14.10
2023-03-19T22:31:31.470Z,14.13
2023-03-19T22:33:58.864Z,14.09
2023-03-19T22:36:25.615Z,14.08
2023-03-19T22:38:52.737Z,14.05
2023-03-19T22:41:46.467Z,14.03
2023-03-19T22:44:17.584Z,14.03
2023-03-19T22:46:44.523Z,14.00
2023-03-19T22:49:15.766Z,13.96
2023-03-19T22:51:43.643Z,13.97
2023-03-19T22:54:13.692Z,13.95
2023-03-19T22:56:40.694Z,13.92
2023-03-19T22:59:07.743Z,13.88
2023-03-19T23:01:41.787Z,13.88
2023-03-19T23:04:18.183Z,13.85
2023-03-19T23:06:45.362Z,13.83
2023-03-19T23:09:17.213Z,13.81
2023-03-19T23:11:44.141Z,13.81
2023-03-19T23:14:26.126Z,13.78
2023-03-19T23:16:55.913Z,13.73
2023-03-19T23:19:23.848Z,13.70
2023-03-19T23:21:50.776Z,13.65
2023-03-19T23:24:18.745Z,13.65
2023-03-19T23:26:47.188Z,13.64
2023-03-19T23:29:19.183Z,13.61
2023-03-19T23:31:46.304Z,13.61
2023-03-19T23:34:13.844Z,13.57
2023-03-19T23:36:40.700Z,13.56
2023-03-19T23:39:07.828Z,13.54
2023-03-19T23:41:34.637Z,13.46
2023-03-19T23:44:03.049Z,13.45
2023-03-19T23:46:30.148Z,13.45
2023-03-19T23:48:57.299Z,13.43
2023-03-19T23:51:24.050Z,13.45
2023-03-19T23:53:51.431Z,13.37
2023-03-19T23:56:26.049Z,13.37
2023-03-19T23:58:54.265Z,13.38
